sensor_id;sensor_type;location;lat;lon;timestamp;temperature;humidity
21193;DHT22;10754;51.106;7.164;2022-08-25T00:00:29;26.90;99.90
21193;DHT22;10754;51.106;7.164;2022-08-25T00:02:54;27.00;99.90
21193;DHT22;10754;51.106;7.164;2022-08-25T00:05:20;27.00;99.90
21193;DHT22;10754;51.106;7.164;2022-08-25T00:07:46;26.90;99.90
21193;DHT22;10754;51.106;7.164;2022-08-25T00:10:11;27.10;99.90
21193;DHT22;10754;51.106;7.164;2022-08-25T00:12:37;27.00;99.90
21193;DHT22;10754;51.106;7.164;2022-08-25T00:15:03;26.90;99.90
21193;DHT22;10754;51.106;7.164;2022-08-25T00:17:29;26.90;99.90
21193;DHT22;10754;51.106;7.164;2022-08-25T00:19:55;26.80;99.90
21193;DHT22;10754;51.106;7.164;2022-08-25T00:22:20;26.90;99.90
21193;DHT22;10754;51.106;7.164;2022-08-25T00:24:46;26.80;99.90
21193;DHT22;10754;51.106;7.164;2022-08-25T00:27:12;26.80;99.90
21193;DHT22;10754;51.106;7.164;2022-08-25T00:29:37;26.80;99.90
21193;DHT22;10754;51.106;7.164;2022-08-25T00:32:04;26.80;99.90
21193;DHT22;10754;51.106;7.164;2022-08-25T00:34:34;26.80;99.90
21193;DHT22;10754;51.106;7.164;2022-08-25T00:37:02;26.80;99.90
21193;DHT22;10754;51.106;7.164;2022-08-25T00:39:29;26.80;99.90
21193;DHT22;10754;51.106;7.164;2022-08-25T00:41:56;26.80;99.90
21193;DHT22;10754;51.106;7.164;2022-08-25T00:44:23;26.70;99.90
21193;DHT22;10754;51.106;7.164;2022-08-25T00:46:52;26.70;99.90
21193;DHT22;10754;51.106;7.164;2022-08-25T00:52:08;26.70;99.90
21193;DHT22;10754;51.106;7.164;2022-08-25T00:57:25;26.60;99.90
21193;DHT22;10754;51.106;7.164;2022-08-25T00:59:52;26.60;99.90
21193;DHT22;10754;51.106;7.164;2022-08-25T01:02:17;26.70;99.90
21193;DHT22;10754;51.106;7.164;2022-08-25T01:04:44;26.60;99.90
21193;DHT22;10754;51.106;7.164;2022-08-25T01:07:10;26.60;99.90
21193;DHT22;10754;51.106;7.164;2022-08-25T01:09:37;26.60;99.90
21193;DHT22;10754;51.106;7.164;2022-08-25T01:12:03;26.50;99.90
21193;DHT22;10754;51.106;7.164;2022-08-25T01:14:30;26.40;99.90
21193;DHT22;10754;51.106;7.164;2022-08-25T01:16:57;26.50;99.90
21193;DHT22;10754;51.106;7.164;2022-08-25T01:19:24;26.40;99.90
21193;DHT22;10754;51.106;7.164;2022-08-25T01:21:52;26.50;99.90
21193;DHT22;10754;51.106;7.164;2022-08-25T01:24:42;26.50;99.90
21193;DHT22;10754;51.106;7.164;2022-08-25T01:27:10;26.40;99.90
21193;DHT22;10754;51.106;7.164;2022-08-25T01:29:36;26.40;99.90
21193;DHT22;10754;51.106;7.164;2022-08-25T01:32:06;26.30;99.90
21193;DHT22;10754;51.106;7.164;2022-08-25T01:34:36;26.30;99.90
21193;DHT22;10754;51.106;7.164;2022-08-25T01:37:03;26.30;99.90
21193;DHT22;10754;51.106;7.164;2022-08-25T01:39:30;26.30;99.90
21193;DHT22;10754;51.106;7.164;2022-08-25T01:44:43;26.20;99.90
21193;DHT22;10754;51.106;7.164;2022-08-25T01:47:10;26.10;99.90
21193;DHT22;10754;51.106;7.164;2022-08-25T01:49:36;26.20;99.90
21193;DHT22;10754;51.106;7.164;2022-08-25T01:52:26;26.20;99.90
21193;DHT22;10754;51.106;7.164;2022-08-25T01:54:52;26.20;99.90
21193;DHT22;10754;51.106;7.164;2022-08-25T01:57:19;26.00;99.90
21193;DHT22;10754;51.106;7.164;2022-08-25T01:59:44;26.10;99.90
21193;DHT22;10754;51.106;7.164;2022-08-25T02:02:10;26.10;99.90
21193;DHT22;10754;51.106;7.164;2022-08-25T02:04:36;26.00;99.90
21193;DHT22;10754;51.106;7.164;2022-08-25T02:07:04;26.00;99.90
21193;DHT22;10754;51.106;7.164;2022-08-25T02:09:30;26.00;99.90
21193;DHT22;10754;51.106;7.164;2022-08-25T02:11:56;26.00;99.90
21193;DHT22;10754;51.106;7.164;2022-08-25T02:14:22;25.90;99.90
21193;DHT22;10754;51.106;7.164;2022-08-25T02:16:49;25.90;99.90
21193;DHT22;10754;51.106;7.164;2022-08-25T02:19:16;25.90;99.90
21193;DHT22;10754;51.106;7.164;2022-08-25T02:21:42;25.90;99.90
21193;DHT22;10754;51.106;7.164;2022-08-25T02:24:08;25.90;99.90
21193;DHT22;10754;51.106;7.164;2022-08-25T02:26:34;25.80;99.90
21193;DHT22;10754;51.106;7.164;2022-08-25T02:29:00;25.80;99.90
21193;DHT22;10754;51.106;7.164;2022-08-25T02:31:26;25.80;99.90
21193;DHT22;10754;51.106;7.164;2022-08-25T02:33:52;25.80;99.90
21193;DHT22;10754;51.106;7.164;2022-08-25T02:36:19;25.80;99.90
21193;DHT22;10754;51.106;7.164;2022-08-25T02:38:45;25.70;99.90
21193;DHT22;10754;51.106;7.164;2022-08-25T02:41:15;25.70;99.90
21193;DHT22;10754;51.106;7.164;2022-08-25T02:43:41;25.70;99.90
21193;DHT22;10754;51.106;7.164;2022-08-25T02:46:08;25.70;99.90
21193;DHT22;10754;51.106;7.164;2022-08-25T02:48:34;25.60;99.90
21193;DHT22;10754;51.106;7.164;2022-08-25T02:51:01;25.60;99.90
21193;DHT22;10754;51.106;7.164;2022-08-25T02:53:28;25.60;99.90
21193;DHT22;10754;51.106;7.164;2022-08-25T02:55:54;25.50;99.90
21193;DHT22;10754;51.106;7.164;2022-08-25T02:58:20;25.50;99.90
21193;DHT22;10754;51.106;7.164;2022-08-25T03:00:47;25.40;99.90
21193;DHT22;10754;51.106;7.164;2022-08-25T03:03:13;25.40;99.90
21193;DHT22;10754;51.106;7.164;2022-08-25T03:05:39;25.40;99.90
21193;DHT22;10754;51.106;7.164;2022-08-25T03:08:06;25.40;99.90
21193;DHT22;10754;51.106;7.164;2022-08-25T03:10:32;25.40;99.90
21193;DHT22;10754;51.106;7.164;2022-08-25T03:12:58;25.30;99.90
21193;DHT22;10754;51.106;7.164;2022-08-25T03:15:24;25.30;99.90
21193;DHT22;10754;51.106;7.164;2022-08-25T03:17:51;25.20;99.90
21193;DHT22;10754;51.106;7.164;2022-08-25T03:20:18;25.10;99.90
21193;DHT22;10754;51.106;7.164;2022-08-25T03:22:43;25.10;99.90
21193;DHT22;10754;51.106;7.164;2022-08-25T03:25:09;25.20;99.90
21193;DHT22;10754;51.106;7.164;2022-08-25T03:27:53;25.10;99.90
21193;DHT22;10754;51.106;7.164;2022-08-25T03:30:19;25.00;99.90
21193;DHT22;10754;51.106;7.164;2022-08-25T03:32:45;24.90;99.90
21193;DHT22;10754;51.106;7.164;2022-08-25T03:35:11;24.90;99.90
21193;DHT22;10754;51.106;7.164;2022-08-25T03:37:37;24.90;99.90
21193;DHT22;10754;51.106;7.164;2022-08-25T03:40:05;24.90;99.90
21193;DHT22;10754;51.106;7.164;2022-08-25T03:42:32;24.80;99.90
21193;DHT22;10754;51.106;7.164;2022-08-25T03:44:57;24.80;99.90
21193;DHT22;10754;51.106;7.164;2022-08-25T03:47:23;24.80;99.90
21193;DHT22;10754;51.106;7.164;2022-08-25T03:49:53;24.80;99.90
21193;DHT22;10754;51.106;7.164;2022-08-25T03:52:19;24.80;99.90
21193;DHT22;10754;51.106;7.164;2022-08-25T03:54:45;24.80;99.90
21193;DHT22;10754;51.106;7.164;2022-08-25T03:57:11;24.80;99.90
21193;DHT22;10754;51.106;7.164;2022-08-25T03:59:36;24.70;99.90
21193;DHT22;10754;51.106;7.164;2022-08-25T04:02:06;24.70;99.90
21193;DHT22;10754;51.106;7.164;2022-08-25T04:04:32;24.70;99.90
21193;DHT22;10754;51.106;7.164;2022-08-25T04:06:58;24.60;99.90
21193;DHT22;10754;51.106;7.164;2022-08-25T04:09:24;24.60;99.90
21193;DHT22;10754;51.106;7.164;2022-08-25T04:11:49;24.60;99.90
21193;DHT22;10754;51.106;7.164;2022-08-25T04:14:15;24.60;99.90
21193;DHT22;10754;51.106;7.164;2022-08-25T04:16:41;24.60;99.90
21193;DHT22;10754;51.106;7.164;2022-08-25T04:19:07;24.70;99.90
21193;DHT22;10754;51.106;7.164;2022-08-25T04:21:38;24.70;99.90
21193;DHT22;10754;51.106;7.164;2022-08-25T04:24:09;24.70;99.90
21193;DHT22;10754;51.106;7.164;2022-08-25T04:26:38;24.80;99.90
21193;DHT22;10754;51.106;7.164;2022-08-25T04:29:06;24.80;99.90
21193;DHT22;10754;51.106;7.164;2022-08-25T04:31:33;24.80;99.90
21193;DHT22;10754;51.106;7.164;2022-08-25T04:34:02;24.80;99.90
21193;DHT22;10754;51.106;7.164;2022-08-25T04:36:28;24.80;99.90
21193;DHT22;10754;51.106;7.164;2022-08-25T04:38:53;24.80;99.90
21193;DHT22;10754;51.106;7.164;2022-08-25T04:41:21;24.90;99.90
21193;DHT22;10754;51.106;7.164;2022-08-25T04:43:47;24.90;99.90
21193;DHT22;10754;51.106;7.164;2022-08-25T04:46:19;24.90;99.90
21193;DHT22;10754;51.106;7.164;2022-08-25T04:48:46;24.90;99.90
21193;DHT22;10754;51.106;7.164;2022-08-25T04:51:14;24.90;99.90
21193;DHT22;10754;51.106;7.164;2022-08-25T04:53:40;24.80;99.90
21193;DHT22;10754;51.106;7.164;2022-08-25T04:56:08;24.80;99.90
21193;DHT22;10754;51.106;7.164;2022-08-25T04:58:35;24.90;99.90
21193;DHT22;10754;51.106;7.164;2022-08-25T05:01:09;24.80;99.90
21193;DHT22;10754;51.106;7.164;2022-08-25T05:03:36;24.90;99.90
21193;DHT22;10754;51.106;7.164;2022-08-25T05:06:02;25.00;99.90
21193;DHT22;10754;51.106;7.164;2022-08-25T05:08:28;25.00;99.90
21193;DHT22;10754;51.106;7.164;2022-08-25T05:10:54;25.00;99.90
21193;DHT22;10754;51.106;7.164;2022-08-25T05:13:22;25.00;99.90
21193;DHT22;10754;51.106;7.164;2022-08-25T05:15:55;25.00;99.90
21193;DHT22;10754;51.106;7.164;2022-08-25T05:18:22;25.00;99.90
21193;DHT22;10754;51.106;7.164;2022-08-25T05:20:49;25.10;99.90
21193;DHT22;10754;51.106;7.164;2022-08-25T05:23:14;25.20;99.90
21193;DHT22;10754;51.106;7.164;2022-08-25T05:25:40;25.10;99.90
21193;DHT22;10754;51.106;7.164;2022-08-25T05:28:07;25.00;99.90
21193;DHT22;10754;51.106;7.164;2022-08-25T05:30:33;25.00;99.90
21193;DHT22;10754;51.106;7.164;2022-08-25T05:32:58;25.00;99.90
21193;DHT22;10754;51.106;7.164;2022-08-25T05:35:24;25.00;99.90
21193;DHT22;10754;51.106;7.164;2022-08-25T05:37:49;25.10;99.90
21193;DHT22;10754;51.106;7.164;2022-08-25T05:40:15;25.10;99.90
21193;DHT22;10754;51.106;7.164;2022-08-25T05:42:40;25.10;99.90
21193;DHT22;10754;51.106;7.164;2022-08-25T05:45:07;25.10;99.90
21193;DHT22;10754;51.106;7.164;2022-08-25T05:47:33;25.10;99.90
21193;DHT22;10754;51.106;7.164;2022-08-25T05:49:58;25.10;99.90
21193;DHT22;10754;51.106;7.164;2022-08-25T05:52:26;25.10;99.90
21193;DHT22;10754;51.106;7.164;2022-08-25T05:54:52;25.10;99.90
21193;DHT22;10754;51.106;7.164;2022-08-25T05:57:17;25.10;99.90
21193;DHT22;10754;51.106;7.164;2022-08-25T05:59:43;25.10;99.90
21193;DHT22;10754;51.106;7.164;2022-08-25T06:02:08;25.10;99.90
21193;DHT22;10754;51.106;7.164;2022-08-25T06:04:52;25.10;99.90
21193;DHT22;10754;51.106;7.164;2022-08-25T06:07:18;25.10;99.90
21193;DHT22;10754;51.106;7.164;2022-08-25T06:09:43;25.10;99.90
21193;DHT22;10754;51.106;7.164;2022-08-25T06:12:10;25.40;99.90
21193;DHT22;10754;51.106;7.164;2022-08-25T06:14:36;25.30;99.90
21193;DHT22;10754;51.106;7.164;2022-08-25T06:17:02;25.30;99.90
21193;DHT22;10754;51.106;7.164;2022-08-25T06:19:28;25.30;99.90
21193;DHT22;10754;51.106;7.164;2022-08-25T06:21:56;25.30;99.90
21193;DHT22;10754;51.106;7.164;2022-08-25T06:24:23;25.30;99.90
21193;DHT22;10754;51.106;7.164;2022-08-25T06:26:49;25.30;99.90
21193;DHT22;10754;51.106;7.164;2022-08-25T06:29:15;25.40;99.90
21193;DHT22;10754;51.106;7.164;2022-08-25T06:31:41;25.50;99.90
21193;DHT22;10754;51.106;7.164;2022-08-25T06:34:07;25.50;99.90
21193;DHT22;10754;51.106;7.164;2022-08-25T06:36:33;25.80;99.90
21193;DHT22;10754;51.106;7.164;2022-08-25T06:38:59;25.80;99.90
21193;DHT22;10754;51.106;7.164;2022-08-25T06:41:25;25.80;99.90
21193;DHT22;10754;51.106;7.164;2022-08-25T06:43:50;25.80;99.90
21193;DHT22;10754;51.106;7.164;2022-08-25T06:46:21;25.80;99.90
21193;DHT22;10754;51.106;7.164;2022-08-25T06:48:48;25.80;99.90
21193;DHT22;10754;51.106;7.164;2022-08-25T06:51:15;25.80;99.90
21193;DHT22;10754;51.106;7.164;2022-08-25T06:53:42;25.90;99.90
21193;DHT22;10754;51.106;7.164;2022-08-25T06:56:09;26.10;99.90
21193;DHT22;10754;51.106;7.164;2022-08-25T06:58:35;26.10;99.90
21193;DHT22;10754;51.106;7.164;2022-08-25T07:03:36;26.70;99.90
21193;DHT22;10754;51.106;7.164;2022-08-25T07:06:02;26.60;99.90
21193;DHT22;10754;51.106;7.164;2022-08-25T07:08:28;26.60;99.90
21193;DHT22;10754;51.106;7.164;2022-08-25T07:10:54;26.80;99.90
21193;DHT22;10754;51.106;7.164;2022-08-25T07:13:19;26.50;99.90
21193;DHT22;10754;51.106;7.164;2022-08-25T07:15:45;26.40;99.90
21193;DHT22;10754;51.106;7.164;2022-08-25T07:18:11;26.40;99.90
21193;DHT22;10754;51.106;7.164;2022-08-25T07:20:38;26.50;99.90
21193;DHT22;10754;51.106;7.164;2022-08-25T07:23:05;26.60;99.90
21193;DHT22;10754;51.106;7.164;2022-08-25T07:25:32;26.70;99.90
21193;DHT22;10754;51.106;7.164;2022-08-25T07:27:57;26.70;99.90
21193;DHT22;10754;51.106;7.164;2022-08-25T07:30:23;26.80;99.90
21193;DHT22;10754;51.106;7.164;2022-08-25T07:32:49;27.40;99.90
21193;DHT22;10754;51.106;7.164;2022-08-25T07:35:14;27.10;99.90
21193;DHT22;10754;51.106;7.164;2022-08-25T07:37:41;27.10;99.90
21193;DHT22;10754;51.106;7.164;2022-08-25T07:40:13;27.90;99.90
21193;DHT22;10754;51.106;7.164;2022-08-25T07:42:39;27.70;99.90
21193;DHT22;10754;51.106;7.164;2022-08-25T07:45:05;27.50;99.90
21193;DHT22;10754;51.106;7.164;2022-08-25T07:47:31;27.20;99.90
21193;DHT22;10754;51.106;7.164;2022-08-25T07:49:57;27.20;99.90
21193;DHT22;10754;51.106;7.164;2022-08-25T07:52:22;27.40;99.90
21193;DHT22;10754;51.106;7.164;2022-08-25T07:54:48;27.50;99.90
21193;DHT22;10754;51.106;7.164;2022-08-25T07:57:14;27.50;99.90
21193;DHT22;10754;51.106;7.164;2022-08-25T07:59:41;27.40;99.90
21193;DHT22;10754;51.106;7.164;2022-08-25T08:02:11;27.70;99.90
21193;DHT22;10754;51.106;7.164;2022-08-25T08:04:37;28.50;99.90
21193;DHT22;10754;51.106;7.164;2022-08-25T08:07:04;28.60;99.90
21193;DHT22;10754;51.106;7.164;2022-08-25T08:09:31;28.60;99.90
21193;DHT22;10754;51.106;7.164;2022-08-25T08:11:56;28.70;99.90
21193;DHT22;10754;51.106;7.164;2022-08-25T08:14:22;28.60;99.90
21193;DHT22;10754;51.106;7.164;2022-08-25T08:16:47;28.40;99.90
21193;DHT22;10754;51.106;7.164;2022-08-25T08:19:14;28.40;99.90
21193;DHT22;10754;51.106;7.164;2022-08-25T08:21:40;28.20;99.90
21193;DHT22;10754;51.106;7.164;2022-08-25T08:24:06;28.00;99.90
21193;DHT22;10754;51.106;7.164;2022-08-25T08:26:33;28.20;99.90
21193;DHT22;10754;51.106;7.164;2022-08-25T08:28:59;28.50;99.90
21193;DHT22;10754;51.106;7.164;2022-08-25T08:31:25;28.50;99.90
21193;DHT22;10754;51.106;7.164;2022-08-25T08:33:54;28.30;99.90
21193;DHT22;10754;51.106;7.164;2022-08-25T08:36:21;28.10;99.90
21193;DHT22;10754;51.106;7.164;2022-08-25T08:38:47;28.20;99.90
21193;DHT22;10754;51.106;7.164;2022-08-25T08:46:51;28.80;99.90
21193;DHT22;10754;51.106;7.164;2022-08-25T08:49:32;28.50;99.90
21193;DHT22;10754;51.106;7.164;2022-08-25T08:52:01;28.90;99.90
21193;DHT22;10754;51.106;7.164;2022-08-25T08:54:32;29.10;99.90
21193;DHT22;10754;51.106;7.164;2022-08-25T08:57:15;29.30;99.90
21193;DHT22;10754;51.106;7.164;2022-08-25T09:00:03;29.50;99.90
21193;DHT22;10754;51.106;7.164;2022-08-25T09:02:48;29.50;99.90
21193;DHT22;10754;51.106;7.164;2022-08-25T09:05:16;29.60;99.90
21193;DHT22;10754;51.106;7.164;2022-08-25T09:07:52;29.50;99.90
21193;DHT22;10754;51.106;7.164;2022-08-25T09:10:18;29.20;99.90
21193;DHT22;10754;51.106;7.164;2022-08-25T09:16:23;29.20;99.90
21193;DHT22;10754;51.106;7.164;2022-08-25T09:22:21;29.50;99.90
21193;DHT22;10754;51.106;7.164;2022-08-25T09:30:32;29.90;99.90
21193;DHT22;10754;51.106;7.164;2022-08-25T09:32:59;30.30;99.90
21193;DHT22;10754;51.106;7.164;2022-08-25T09:35:34;30.50;99.90
21193;DHT22;10754;51.106;7.164;2022-08-25T09:38:07;30.70;99.90
21193;DHT22;10754;51.106;7.164;2022-08-25T09:40:37;30.80;99.90
21193;DHT22;10754;51.106;7.164;2022-08-25T09:43:08;30.90;99.90
21193;DHT22;10754;51.106;7.164;2022-08-25T09:45:45;31.00;99.90
21193;DHT22;10754;51.106;7.164;2022-08-25T09:48:25;31.00;99.90
21193;DHT22;10754;51.106;7.164;2022-08-25T09:50:58;31.20;99.90
21193;DHT22;10754;51.106;7.164;2022-08-25T09:53:25;30.70;99.90
21193;DHT22;10754;51.106;7.164;2022-08-25T09:56:03;30.50;99.90
21193;DHT22;10754;51.106;7.164;2022-08-25T09:58:30;30.40;99.90
21193;DHT22;10754;51.106;7.164;2022-08-25T10:01:19;30.50;99.90
21193;DHT22;10754;51.106;7.164;2022-08-25T10:04:01;30.70;99.90
21193;DHT22;10754;51.106;7.164;2022-08-25T10:06:34;31.20;99.90
21193;DHT22;10754;51.106;7.164;2022-08-25T10:09:04;31.50;99.90
21193;DHT22;10754;51.106;7.164;2022-08-25T10:11:37;31.60;99.90
21193;DHT22;10754;51.106;7.164;2022-08-25T10:14:18;31.70;99.90
21193;DHT22;10754;51.106;7.164;2022-08-25T10:16:45;31.40;99.90
21193;DHT22;10754;51.106;7.164;2022-08-25T10:19:12;31.80;99.90
21193;DHT22;10754;51.106;7.164;2022-08-25T10:21:41;32.00;99.90
21193;DHT22;10754;51.106;7.164;2022-08-25T10:24:11;32.00;99.90
21193;DHT22;10754;51.106;7.164;2022-08-25T10:33:10;32.50;99.90
21193;DHT22;10754;51.106;7.164;2022-08-25T10:35:53;32.70;99.90
21193;DHT22;10754;51.106;7.164;2022-08-25T10:38:44;32.90;99.90
21193;DHT22;10754;51.106;7.164;2022-08-25T10:41:17;33.10;99.90
21193;DHT22;10754;51.106;7.164;2022-08-25T10:46:54;33.20;99.90
21193;DHT22;10754;51.106;7.164;2022-08-25T10:49:36;33.40;99.90
21193;DHT22;10754;51.106;7.164;2022-08-25T10:52:13;33.50;99.90
21193;DHT22;10754;51.106;7.164;2022-08-25T10:57:31;33.70;99.90
21193;DHT22;10754;51.106;7.164;2022-08-25T11:00:09;33.80;99.90
21193;DHT22;10754;51.106;7.164;2022-08-25T11:02:55;33.90;99.90
21193;DHT22;10754;51.106;7.164;2022-08-25T11:05:30;34.00;99.90
21193;DHT22;10754;51.106;7.164;2022-08-25T11:08:12;34.20;99.90
21193;DHT22;10754;51.106;7.164;2022-08-25T11:10:45;34.40;99.90
21193;DHT22;10754;51.106;7.164;2022-08-25T11:13:21;34.50;99.90
21193;DHT22;10754;51.106;7.164;2022-08-25T11:16:00;34.90;99.90
21193;DHT22;10754;51.106;7.164;2022-08-25T11:18:27;35.20;93.30
21193;DHT22;10754;51.106;7.164;2022-08-25T11:21:27;35.10;99.90
21193;DHT22;10754;51.106;7.164;2022-08-25T11:24:02;35.10;99.90
21193;DHT22;10754;51.106;7.164;2022-08-25T11:26:34;35.20;99.90
21193;DHT22;10754;51.106;7.164;2022-08-25T11:29:08;35.40;99.90
21193;DHT22;10754;51.106;7.164;2022-08-25T11:31:43;35.60;99.90
21193;DHT22;10754;51.106;7.164;2022-08-25T11:34:12;36.00;80.00
21193;DHT22;10754;51.106;7.164;2022-08-25T11:36:48;36.00;68.40
21193;DHT22;10754;51.106;7.164;2022-08-25T11:44:58;36.30;57.30
21193;DHT22;10754;51.106;7.164;2022-08-25T11:50:29;37.10;64.00
21193;DHT22;10754;51.106;7.164;2022-08-25T11:53:17;37.80;17.60
21193;DHT22;10754;51.106;7.164;2022-08-25T11:55:50;38.80;26.20
21193;DHT22;10754;51.106;7.164;2022-08-25T11:58:32;40.30;1.00
21193;DHT22;10754;51.106;7.164;2022-08-25T12:01:00;40.90;1.00
21193;DHT22;10754;51.106;7.164;2022-08-25T12:06:20;39.60;1.00
21193;DHT22;10754;51.106;7.164;2022-08-25T12:11:44;41.70;1.00
21193;DHT22;10754;51.106;7.164;2022-08-25T12:16:41;40.70;1.00
21193;DHT22;10754;51.106;7.164;2022-08-25T12:27:25;40.80;1.00
21193;DHT22;10754;51.106;7.164;2022-08-25T12:30:25;41.00;1.00
21193;DHT22;10754;51.106;7.164;2022-08-25T12:35:59;43.10;1.00
21193;DHT22;10754;51.106;7.164;2022-08-25T12:41:12;44.60;1.00
21193;DHT22;10754;51.106;7.164;2022-08-25T12:43:44;45.20;1.00
21193;DHT22;10754;51.106;7.164;2022-08-25T12:52:06;45.70;1.00
21193;DHT22;10754;51.106;7.164;2022-08-25T12:54:58;44.10;1.00
21193;DHT22;10754;51.106;7.164;2022-08-25T13:00:20;43.40;1.00
21193;DHT22;10754;51.106;7.164;2022-08-25T13:03:08;43.90;1.00
21193;DHT22;10754;51.106;7.164;2022-08-25T13:14:40;44.50;1.00
21193;DHT22;10754;51.106;7.164;2022-08-25T13:17:07;45.40;1.00
21193;DHT22;10754;51.106;7.164;2022-08-25T13:19:33;46.20;1.00
21193;DHT22;10754;51.106;7.164;2022-08-25T13:22:02;45.60;1.00
21193;DHT22;10754;51.106;7.164;2022-08-25T13:24:32;45.70;1.00
21193;DHT22;10754;51.106;7.164;2022-08-25T13:27:01;46.00;1.00
21193;DHT22;10754;51.106;7.164;2022-08-25T13:29:30;44.80;1.00
21193;DHT22;10754;51.106;7.164;2022-08-25T13:32:01;43.80;1.00
21193;DHT22;10754;51.106;7.164;2022-08-25T13:34:34;43.20;1.00
21193;DHT22;10754;51.106;7.164;2022-08-25T13:37:08;42.70;1.00
21193;DHT22;10754;51.106;7.164;2022-08-25T13:40:10;42.20;1.00
21193;DHT22;10754;51.106;7.164;2022-08-25T13:42:38;41.90;1.00
21193;DHT22;10754;51.106;7.164;2022-08-25T13:45:05;41.60;1.00
21193;DHT22;10754;51.106;7.164;2022-08-25T13:47:39;41.40;1.00
21193;DHT22;10754;51.106;7.164;2022-08-25T13:55:52;40.60;1.00
21193;DHT22;10754;51.106;7.164;2022-08-25T13:58:22;40.80;1.00
21193;DHT22;10754;51.106;7.164;2022-08-25T14:03:38;39.60;1.00
21193;DHT22;10754;51.106;7.164;2022-08-25T14:08:47;39.40;1.00
21193;DHT22;10754;51.106;7.164;2022-08-25T14:11:31;38.90;1.00
21193;DHT22;10754;51.106;7.164;2022-08-25T14:17:02;38.60;1.00
21193;DHT22;10754;51.106;7.164;2022-08-25T14:19:29;38.60;1.00
21193;DHT22;10754;51.106;7.164;2022-08-25T14:21:56;38.30;1.00
21193;DHT22;10754;51.106;7.164;2022-08-25T14:24:24;37.90;1.00
21193;DHT22;10754;51.106;7.164;2022-08-25T14:26:52;37.70;1.00
21193;DHT22;10754;51.106;7.164;2022-08-25T14:29:17;37.20;6.10
21193;DHT22;10754;51.106;7.164;2022-08-25T14:31:44;37.40;5.20
21193;DHT22;10754;51.106;7.164;2022-08-25T14:34:26;37.30;1.00
21193;DHT22;10754;51.106;7.164;2022-08-25T14:36:53;37.20;1.00
21193;DHT22;10754;51.106;7.164;2022-08-25T14:39:19;37.10;6.20
21193;DHT22;10754;51.106;7.164;2022-08-25T14:41:45;36.80;9.70
21193;DHT22;10754;51.106;7.164;2022-08-25T14:44:11;36.60;14.00
21193;DHT22;10754;51.106;7.164;2022-08-25T14:46:54;36.20;21.80
21193;DHT22;10754;51.106;7.164;2022-08-25T14:49:25;36.10;24.60
21193;DHT22;10754;51.106;7.164;2022-08-25T14:51:55;35.80;33.90
21193;DHT22;10754;51.106;7.164;2022-08-25T14:54:25;35.60;43.90
21193;DHT22;10754;51.106;7.164;2022-08-25T14:56:51;35.50;53.90
21193;DHT22;10754;51.106;7.164;2022-08-25T14:59:17;35.40;56.30
21193;DHT22;10754;51.106;7.164;2022-08-25T15:01:43;35.40;46.40
21193;DHT22;10754;51.106;7.164;2022-08-25T15:04:14;35.70;15.70
21193;DHT22;10754;51.106;7.164;2022-08-25T15:06:42;36.20;18.50
21193;DHT22;10754;51.106;7.164;2022-08-25T15:09:10;36.00;23.00
21193;DHT22;10754;51.106;7.164;2022-08-25T15:11:39;35.60;24.80
21193;DHT22;10754;51.106;7.164;2022-08-25T15:14:05;35.20;38.20
21193;DHT22;10754;51.106;7.164;2022-08-25T15:16:32;35.10;44.50
21193;DHT22;10754;51.106;7.164;2022-08-25T15:18:59;35.30;47.40
21193;DHT22;10754;51.106;7.164;2022-08-25T15:21:25;35.50;45.30
21193;DHT22;10754;51.106;7.164;2022-08-25T15:23:51;35.50;25.90
21193;DHT22;10754;51.106;7.164;2022-08-25T15:26:17;35.10;32.70
21193;DHT22;10754;51.106;7.164;2022-08-25T15:28:45;35.00;42.70
21193;DHT22;10754;51.106;7.164;2022-08-25T15:31:13;35.00;52.10
21193;DHT22;10754;51.106;7.164;2022-08-25T15:33:39;34.80;44.50
21193;DHT22;10754;51.106;7.164;2022-08-25T15:36:10;34.70;53.60
21193;DHT22;10754;51.106;7.164;2022-08-25T15:38:37;34.70;47.90
21193;DHT22;10754;51.106;7.164;2022-08-25T15:41:03;34.50;60.40
21193;DHT22;10754;51.106;7.164;2022-08-25T15:43:29;34.30;68.50
21193;DHT22;10754;51.106;7.164;2022-08-25T15:45:55;34.20;77.20
21193;DHT22;10754;51.106;7.164;2022-08-25T15:48:21;34.00;88.70
21193;DHT22;10754;51.106;7.164;2022-08-25T15:50:47;33.80;99.90
21193;DHT22;10754;51.106;7.164;2022-08-25T15:53:16;33.80;99.90
21193;DHT22;10754;51.106;7.164;2022-08-25T15:55:42;33.60;98.30
21193;DHT22;10754;51.106;7.164;2022-08-25T15:58:07;33.50;99.90
21193;DHT22;10754;51.106;7.164;2022-08-25T16:00:33;34.30;73.00
21193;DHT22;10754;51.106;7.164;2022-08-25T16:02:58;34.40;48.30
21193;DHT22;10754;51.106;7.164;2022-08-25T16:05:24;34.10;52.60
21193;DHT22;10754;51.106;7.164;2022-08-25T16:07:49;33.90;65.00
21193;DHT22;10754;51.106;7.164;2022-08-25T16:10:15;33.80;77.30
21193;DHT22;10754;51.106;7.164;2022-08-25T16:12:41;33.50;78.50
21193;DHT22;10754;51.106;7.164;2022-08-25T16:15:07;33.40;89.70
21193;DHT22;10754;51.106;7.164;2022-08-25T16:17:32;33.40;89.80
21193;DHT22;10754;51.106;7.164;2022-08-25T16:19:58;33.30;91.90
21193;DHT22;10754;51.106;7.164;2022-08-25T16:22:23;33.20;92.40
21193;DHT22;10754;51.106;7.164;2022-08-25T16:24:49;33.10;93.80
21193;DHT22;10754;51.106;7.164;2022-08-25T16:27:14;33.10;77.60
21193;DHT22;10754;51.106;7.164;2022-08-25T16:29:41;33.30;81.50
21193;DHT22;10754;51.106;7.164;2022-08-25T16:32:09;33.30;78.90
21193;DHT22;10754;51.106;7.164;2022-08-25T16:34:35;33.10;89.60
21193;DHT22;10754;51.106;7.164;2022-08-25T16:37:01;32.90;99.90
21193;DHT22;10754;51.106;7.164;2022-08-25T16:39:27;32.70;99.90
21193;DHT22;10754;51.106;7.164;2022-08-25T16:41:53;32.60;99.90
21193;DHT22;10754;51.106;7.164;2022-08-25T16:44:20;32.60;99.90
21193;DHT22;10754;51.106;7.164;2022-08-25T16:46:45;32.50;99.90
21193;DHT22;10754;51.106;7.164;2022-08-25T16:49:12;32.40;99.90
21193;DHT22;10754;51.106;7.164;2022-08-25T16:51:39;32.30;99.90
21193;DHT22;10754;51.106;7.164;2022-08-25T16:54:06;32.30;99.90
21193;DHT22;10754;51.106;7.164;2022-08-25T16:56:51;32.30;99.90
21193;DHT22;10754;51.106;7.164;2022-08-25T16:59:16;32.30;99.90
21193;DHT22;10754;51.106;7.164;2022-08-25T17:01:42;32.20;99.90
21193;DHT22;10754;51.106;7.164;2022-08-25T17:04:09;32.20;99.90
21193;DHT22;10754;51.106;7.164;2022-08-25T17:06:37;32.20;99.90
21193;DHT22;10754;51.106;7.164;2022-08-25T17:09:05;32.10;99.90
21193;DHT22;10754;51.106;7.164;2022-08-25T17:11:34;32.00;99.90
21193;DHT22;10754;51.106;7.164;2022-08-25T17:14:02;31.90;99.90
21193;DHT22;10754;51.106;7.164;2022-08-25T17:16:30;31.90;99.90
21193;DHT22;10754;51.106;7.164;2022-08-25T17:18:57;31.90;99.90
21193;DHT22;10754;51.106;7.164;2022-08-25T17:21:24;31.90;99.90
21193;DHT22;10754;51.106;7.164;2022-08-25T17:23:52;31.80;99.90
21193;DHT22;10754;51.106;7.164;2022-08-25T17:26:18;31.80;99.90